Terminal Aerodrome Forecast
Issued by NWS

Home | Current Version | Previous Version | Text Only | Print | Product List | Glossary On
Versions: 1 2 3 4 5 6 7 8 9 10 11 12 13 14 15 16 17 18
000
FTUS46 KSGX 211100
TAFPSP
TAF
KPSP 211137Z 2112/2212 VRB05KT P6SM FEW150
     FM212100 10007KT P6SM VCTS SCT090CB BKN150
     FM220200 32011KT P6SM SCT150
     FM220700 VRB04KT P6SM FEW150=

USA.gov is the U.S. government's official web portal to all federal, state and local government web resources and services.